createdAt,value
2022-11-30T00:01:55.421Z,34.55
2022-11-30T00:05:56.934Z,34.95
2022-11-30T00:09:58.303Z,35.72
2022-11-30T00:13:59.898Z,38.50
2022-11-30T00:18:01.355Z,36.90
2022-11-30T00:22:02.817Z,39.80
2022-11-30T00:26:06.943Z,39.42
2022-11-30T00:30:08.782Z,40.38
2022-11-30T00:34:10.246Z,38.25
2022-11-30T00:38:11.686Z,40.47
2022-11-30T00:42:16.210Z,39.50
2022-11-30T00:46:18.043Z,35.67
2022-11-30T00:50:19.499Z,36.75
2022-11-30T00:54:21.157Z,33.47
2022-11-30T00:58:22.979Z,35.83
2022-11-30T01:02:24.755Z,36.20
2022-11-30T01:06:26.729Z,32.50
2022-11-30T01:10:28.403Z,35.38
2022-11-30T01:14:29.876Z,34.95
2022-11-30T01:18:32.332Z,35.42
2022-11-30T01:22:34.501Z,32.58
2022-11-30T01:26:36.235Z,31.65
2022-11-30T01:30:39.491Z,32.53
2022-11-30T01:34:41.058Z,31.95
2022-11-30T01:38:49.901Z,31.60
2022-11-30T01:42:53.586Z,30.88
2022-11-30T01:46:58.059Z,33.97
2022-11-30T01:50:59.536Z,32.42
2022-11-30T01:55:18.797Z,30.30
2022-11-30T01:59:21.933Z,31.15
2022-11-30T02:03:40.259Z,30.92
2022-11-30T02:07:42.259Z,33.08
2022-11-30T02:11:44.084Z,28.75
2022-11-30T02:16:09.349Z,31.48
2022-11-30T02:20:19.515Z,33.03
2022-11-30T02:24:38.818Z,34.28
2022-11-30T02:28:55.488Z,31.73
2022-11-30T02:33:03.421Z,32.83
2022-11-30T02:37:11.590Z,30.88
2022-11-30T02:41:14.523Z,28.83
2022-11-30T02:45:16.413Z,28.25
2022-11-30T02:49:30.355Z,31.05
2022-11-30T02:53:37.110Z,29.88
2022-11-30T02:57:38.707Z,27.13
2022-11-30T03:01:42.909Z,30.45
2022-11-30T03:05:44.429Z,28.33
2022-11-30T03:09:45.813Z,27.63
2022-11-30T03:13:47.299Z,30.05
2022-11-30T03:17:48.763Z,27.65
2022-11-30T03:21:52.240Z,26.50
2022-11-30T03:25:59.011Z,26.95
2022-11-30T03:30:00.619Z,29.17
2022-11-30T03:34:02.165Z,26.80
2022-11-30T03:38:03.676Z,27.13
2022-11-30T03:42:08.152Z,27.85
2022-11-30T03:46:09.725Z,24.88
2022-11-30T03:50:11.365Z,25.10
2022-11-30T03:54:12.795Z,26.95
2022-11-30T03:58:14.275Z,26.60
2022-11-30T04:02:15.716Z,27.70
2022-11-30T04:06:17.920Z,27.83
2022-11-30T04:10:19.320Z,28.33
2022-11-30T04:14:20.689Z,29.98
2022-11-30T04:18:23.873Z,28.13
2022-11-30T04:22:25.273Z,26.80
2022-11-30T04:26:26.765Z,26.70
2022-11-30T04:30:28.166Z,22.08
2022-11-30T04:34:29.652Z,25.30
2022-11-30T04:38:31.769Z,24.15
2022-11-30T04:42:33.305Z,23.02
2022-11-30T04:46:34.857Z,21.67
2022-11-30T04:50:37.133Z,23.60
2022-11-30T04:54:38.762Z,22.52
2022-11-30T04:58:40.426Z,23.50
2022-11-30T05:02:42.068Z,23.38
2022-11-30T05:06:43.622Z,21.65
2022-11-30T05:10:48.831Z,21.80
2022-11-30T05:14:53.057Z,21.63
2022-11-30T05:18:54.516Z,23.48
2022-11-30T05:22:56.200Z,23.15
2022-11-30T05:27:13.434Z,20.33
2022-11-30T05:31:33.391Z,19.98
2022-11-30T05:35:36.470Z,21.33
2022-11-30T05:39:43.274Z,20.02
2022-11-30T05:43:46.038Z,21.77
2022-11-30T05:47:49.448Z,21.98
2022-11-30T05:51:50.833Z,23.50
2022-11-30T05:55:56.182Z,24.05
2022-11-30T05:59:57.604Z,23.50
2022-11-30T06:03:59.063Z,22.75
2022-11-30T06:08:00.623Z,20.60
2022-11-30T06:12:02.148Z,22.42
2022-11-30T06:16:04.823Z,21.75
2022-11-30T06:20:07.912Z,22.38
2022-11-30T06:24:10.141Z,21.77
2022-11-30T06:28:13.807Z,22.00
2022-11-30T06:36:35.684Z,21.90
2022-11-30T06:40:37.918Z,22.05
2022-11-30T06:44:41.844Z,22.20
2022-11-30T06:48:46.517Z,23.30
2022-11-30T06:52:48.028Z,23.35
2022-11-30T06:56:49.452Z,23.05
2022-11-30T07:10:06.369Z,24.92
2022-11-30T07:14:07.938Z,22.13
2022-11-30T07:18:15.415Z,21.83
2022-11-30T07:22:16.892Z,22.98
2022-11-30T07:26:22.545Z,23.20
2022-11-30T07:30:26.310Z,21.35
2022-11-30T07:34:28.018Z,21.20
2022-11-30T07:44:00.861Z,19.95
2022-11-30T07:48:07.336Z,20.10
2022-11-30T07:52:10.563Z,19.27
2022-11-30T07:56:15.923Z,18.30
2022-11-30T08:00:17.485Z,22.13
2022-11-30T08:04:18.988Z,26.70
2022-11-30T08:08:20.463Z,22.98
2022-11-30T08:12:26.196Z,22.67
2022-11-30T08:16:34.498Z,22.10
2022-11-30T08:20:35.959Z,25.88
2022-11-30T08:25:06.877Z,22.48
2022-11-30T08:29:10.651Z,22.55
2022-11-30T08:33:12.455Z,22.08
2022-11-30T08:37:14.126Z,23.33
2022-11-30T08:41:21.593Z,21.08
2022-11-30T08:45:23.379Z,24.60
2022-11-30T08:49:27.112Z,22.10
2022-11-30T08:54:14.110Z,21.63
2022-11-30T08:58:17.282Z,21.33
2022-11-30T09:02:22.287Z,19.75
2022-11-30T09:06:28.623Z,20.60
2022-11-30T09:10:39.920Z,21.00
2022-11-30T09:14:57.920Z,22.77
2022-11-30T09:19:05.738Z,20.33
2022-11-30T09:23:10.578Z,21.60
2022-11-30T09:31:35.831Z,20.55
2022-11-30T09:35:42.086Z,20.77
2022-11-30T09:39:55.192Z,21.45
2022-11-30T09:44:25.906Z,21.83
2022-11-30T09:49:00.294Z,18.88
2022-11-30T09:53:06.607Z,18.75
2022-11-30T09:57:44.276Z,20.42
2022-11-30T10:01:52.069Z,19.40
2022-11-30T10:06:35.786Z,19.58
2022-11-30T10:11:01.403Z,19.63
2022-11-30T10:15:24.255Z,18.80
2022-11-30T10:19:28.837Z,19.00
2022-11-30T10:23:58.808Z,18.13
2022-11-30T10:28:30.876Z,17.83
2022-11-30T10:32:39.150Z,17.85
2022-11-30T10:36:45.343Z,17.98
2022-11-30T10:40:58.197Z,18.70
2022-11-30T10:45:24.565Z,17.60
2022-11-30T10:49:33.011Z,17.85
2022-11-30T10:53:56.231Z,20.80
2022-11-30T10:58:08.723Z,17.90
2022-11-30T11:02:35.172Z,20.50
2022-11-30T11:06:41.238Z,15.95
2022-11-30T11:10:46.903Z,13.95
2022-11-30T11:14:51.102Z,13.02
2022-11-30T11:19:02.284Z,11.85
2022-11-30T11:23:04.553Z,14.43
2022-11-30T11:27:31.743Z,14.32
2022-11-30T11:31:41.180Z,14.02
2022-11-30T11:35:59.714Z,15.93
2022-11-30T11:40:28.319Z,13.40
2022-11-30T11:44:34.571Z,13.77
2022-11-30T11:48:49.267Z,15.32
2022-11-30T11:53:13.237Z,14.30
2022-11-30T11:57:23.109Z,14.63
2022-11-30T12:01:48.806Z,13.43
2022-11-30T12:06:06.688Z,12.57
2022-11-30T12:10:50.645Z,12.43
2022-11-30T12:14:45.506Z,12.25
2022-11-30T12:19:18.420Z,11.00
2022-11-30T12:24:10.681Z,10.18
2022-11-30T12:29:05.592Z,11.23
2022-11-30T12:33:17.716Z,10.60
2022-11-30T12:37:20.061Z,9.55
2022-11-30T12:41:46.607Z,8.45
2022-11-30T12:45:52.349Z,9.32
2022-11-30T12:50:11.492Z,9.57
2022-11-30T12:54:49.196Z,10.27
2022-11-30T12:59:19.511Z,10.25
2022-11-30T13:03:46.833Z,12.20
2022-11-30T13:08:03.729Z,10.50
2022-11-30T13:12:10.238Z,9.82
2022-11-30T13:16:23.731Z,8.10
2022-11-30T13:20:46.295Z,9.63
2022-11-30T13:30:21.964Z,10.43
2022-11-30T13:34:30.873Z,10.87
2022-11-30T13:38:37.805Z,9.93
2022-11-30T13:42:55.027Z,12.65
2022-11-30T13:46:58.560Z,10.70
2022-11-30T13:51:00.128Z,12.15
2022-11-30T13:55:41.952Z,12.43
2022-11-30T14:00:27.061Z,12.88
2022-11-30T14:04:32.269Z,13.77
2022-11-30T14:08:36.851Z,15.15
2022-11-30T14:12:46.172Z,15.73
2022-11-30T14:16:47.805Z,17.55
2022-11-30T14:20:52.292Z,14.73
2022-11-30T14:24:54.298Z,14.70
2022-11-30T14:29:07.556Z,15.43
2022-11-30T14:33:19.464Z,14.43
2022-11-30T14:37:35.413Z,15.30
2022-11-30T14:41:41.120Z,14.32
2022-11-30T14:45:42.837Z,15.80
2022-11-30T14:49:51.807Z,15.48
2022-11-30T14:54:01.539Z,14.85
2022-11-30T14:58:23.375Z,15.05
2022-11-30T15:02:38.844Z,16.20
2022-11-30T15:06:40.900Z,17.20
2022-11-30T15:10:42.902Z,15.85
2022-11-30T15:15:07.711Z,16.23
2022-11-30T15:19:30.579Z,20.02
2022-11-30T15:23:35.261Z,17.40
2022-11-30T15:27:39.026Z,16.88
2022-11-30T15:31:43.669Z,13.88
2022-11-30T15:36:13.712Z,13.45
2022-11-30T15:40:16.624Z,14.55
2022-11-30T15:44:26.705Z,14.13
2022-11-30T15:48:41.642Z,13.93
2022-11-30T15:52:44.593Z,12.85
2022-11-30T15:56:56.582Z,13.10
2022-11-30T16:05:35.340Z,13.07
2022-11-30T16:09:38.330Z,13.38
2022-11-30T16:13:43.806Z,14.38
2022-11-30T16:17:45.643Z,12.30
2022-11-30T16:21:48.836Z,11.10
2022-11-30T16:25:50.853Z,12.77
2022-11-30T16:29:52.988Z,11.15
2022-11-30T16:33:54.933Z,9.05
2022-11-30T16:37:56.306Z,10.07
2022-11-30T16:42:28.192Z,11.32
2022-11-30T16:46:34.920Z,8.50
2022-11-30T16:50:36.955Z,9.73
2022-11-30T16:54:38.389Z,8.32
2022-11-30T16:58:44.311Z,8.82
2022-11-30T17:02:50.052Z,9.35
2022-11-30T17:07:00.526Z,10.00
2022-11-30T17:11:03.949Z,12.75
2022-11-30T17:15:06.163Z,12.32
2022-11-30T17:19:10.331Z,15.07
2022-11-30T17:23:11.731Z,14.57
2022-11-30T17:27:13.326Z,13.55
2022-11-30T17:31:15.616Z,14.60
2022-11-30T17:35:18.707Z,13.45
2022-11-30T17:39:20.249Z,12.23
2022-11-30T17:43:22.129Z,14.50
2022-11-30T17:47:23.773Z,13.57
2022-11-30T17:51:27.994Z,13.40
2022-11-30T17:55:29.563Z,12.50
2022-11-30T17:59:30.998Z,12.35
2022-11-30T18:03:32.503Z,12.15
2022-11-30T18:07:34.017Z,11.45
2022-11-30T18:11:35.520Z,12.95
2022-11-30T18:15:37.210Z,11.52
2022-11-30T18:19:41.254Z,10.77
2022-11-30T18:23:42.849Z,10.65
2022-11-30T18:27:44.514Z,10.93
2022-11-30T18:31:48.274Z,9.88
2022-11-30T18:35:49.785Z,11.48
2022-11-30T18:39:51.185Z,8.45
2022-11-30T18:43:55.899Z,8.32
2022-11-30T18:47:57.244Z,7.25
2022-11-30T18:51:58.792Z,7.43
2022-11-30T18:56:08.268Z,10.00
2022-11-30T19:00:10.129Z,11.18
2022-11-30T19:04:11.714Z,10.75
2022-11-30T19:08:14.079Z,11.93
2022-11-30T19:12:15.500Z,10.88
2022-11-30T19:16:17.019Z,12.27
2022-11-30T19:20:18.867Z,11.98
2022-11-30T19:24:20.305Z,10.65
2022-11-30T19:28:21.741Z,10.93
2022-11-30T19:32:23.116Z,8.40
2022-11-30T19:36:27.292Z,11.02
2022-11-30T19:40:32.331Z,11.52
2022-11-30T19:44:33.702Z,14.60
2022-11-30T19:48:35.246Z,13.75
2022-11-30T19:52:36.660Z,13.27
2022-11-30T19:56:39.148Z,15.85
2022-11-30T20:00:44.662Z,13.88
2022-11-30T20:04:46.498Z,15.18
2022-11-30T20:08:48.170Z,14.68
2022-11-30T20:12:50.680Z,13.85
2022-11-30T20:17:05.206Z,14.35
2022-11-30T20:22:00.784Z,16.48
2022-11-30T20:27:30.679Z,16.27
2022-11-30T20:31:17.899Z,15.70
2022-11-30T20:35:34.329Z,15.63
2022-11-30T20:39:57.176Z,17.38
2022-11-30T20:44:00.076Z,15.35
2022-11-30T20:48:01.680Z,15.73
2022-11-30T20:52:03.750Z,15.15
2022-11-30T20:56:05.567Z,17.73
2022-11-30T21:00:13.060Z,17.50
2022-11-30T21:04:14.842Z,15.10
2022-11-30T21:08:16.189Z,16.70
2022-11-30T21:12:17.721Z,15.70
2022-11-30T21:16:27.234Z,15.10
2022-11-30T21:20:29.423Z,17.77
2022-11-30T21:24:30.759Z,15.43
2022-11-30T21:28:37.669Z,16.67
2022-11-30T21:32:39.427Z,15.25
2022-11-30T21:36:41.036Z,13.23
2022-11-30T21:40:42.579Z,14.70
2022-11-30T21:44:43.939Z,14.93
2022-11-30T21:48:47.924Z,14.45
2022-11-30T21:52:49.310Z,13.80
2022-11-30T21:56:52.557Z,12.48
2022-11-30T22:00:55.801Z,14.27
2022-11-30T22:04:57.172Z,12.10
2022-11-30T22:09:07.539Z,14.32
2022-11-30T22:13:08.907Z,12.02
2022-11-30T22:17:10.330Z,11.98
2022-11-30T22:21:16.869Z,14.63
2022-11-30T22:25:18.268Z,10.90
2022-11-30T22:29:22.644Z,12.98
2022-11-30T22:33:24.025Z,12.65
2022-11-30T22:37:25.397Z,15.65
2022-11-30T22:41:28.006Z,11.98
2022-11-30T22:45:29.356Z,13.75
2022-11-30T22:49:30.814Z,11.90
2022-11-30T22:53:33.866Z,12.85
2022-11-30T22:57:35.249Z,12.07
2022-11-30T23:01:48.161Z,12.23
2022-11-30T23:05:49.559Z,11.60
2022-11-30T23:09:51.124Z,10.52
2022-11-30T23:13:52.930Z,12.88
2022-11-30T23:17:54.355Z,12.40
2022-11-30T23:21:55.772Z,12.55
2022-11-30T23:25:57.185Z,10.93
2022-11-30T23:29:58.534Z,13.57
2022-11-30T23:34:01.702Z,14.90
2022-11-30T23:38:03.758Z,12.27
2022-11-30T23:42:05.180Z,14.95
2022-11-30T23:46:08.166Z,14.80
2022-11-30T23:50:10.135Z,13.95
2022-11-30T23:54:11.500Z,14.43
2022-11-30T23:58:12.897Z,14.68
